Time;durP1;ratioP1;P1;durP2;ratioP2;P2;SDS_P1;SDS_P2;PMS_P1;PMS_P2;Temp;Humidity;BMP_temperature;BMP_pressure;BME280_temperature;BME280_humidity;BME280_pressure;Samples;Min_cycle;Max_cycle;Signal;HPM_P1;HPM_P2
2022/02/09 00:03:52;;;;;;;20.27;11.80;;;4.60;57.40;;;;;;4993804;28;20218;-68
2022/02/09 00:09:01;;;;;;;20.83;11.77;;;4.60;57.30;;;;;;4976950;28;20215;-69
2022/02/09 00:11:34;;;;;;;22.87;12.27;;;4.60;57.50;;;;;;4982973;28;20225;-69
2022/02/09 00:14:11;;;;;;;24.03;12.50;;;4.60;57.00;;;;;;4982430;28;20293;-69
2022/02/09 00:19:20;;;;;;;23.33;12.23;;;4.60;57.70;;;;;;4987173;28;20285;-69
2022/02/09 00:30:27;;;;;;;23.80;11.77;;;4.40;59.20;;;;;;4983274;28;20209;-69
2022/02/09 00:36:10;;;;;;;22.40;11.67;;;4.40;59.40;;;;;;4982074;28;20218;-69
2022/02/09 01:38:03;;;;;;;18.50;10.30;;;4.40;59.40;;;;;;4987284;28;20204;-69
2022/02/09 01:56:29;;;;;;;20.37;10.30;;;4.30;59.00;;;;;;4995228;28;20224;-67
2022/02/09 01:58:57;;;;;;;16.37;9.90;;;4.30;59.10;;;;;;4986882;28;20210;-67
2022/02/09 02:01:25;;;;;;;19.03;8.53;;;4.20;59.10;;;;;;4985216;28;20214;-67
2022/02/09 02:03:53;;;;;;;18.70;10.10;;;4.20;59.10;;;;;;4977478;28;20235;-67
2022/02/09 02:06:20;;;;;;;14.10;9.40;;;4.30;59.00;;;;;;4995095;28;20211;-67
2022/02/09 02:08:51;;;;;;;19.47;9.13;;;4.30;58.60;;;;;;4983759;28;20202;-67
2022/02/09 02:11:46;;;;;;;15.77;9.33;;;4.30;58.40;;;;;;4975446;28;20226;-67
2022/02/09 02:14:29;;;;;;;18.90;10.20;;;4.30;58.50;;;;;;4974936;28;20222;-67
2022/02/09 02:19:38;;;;;;;12.67;9.33;;;4.10;58.60;;;;;;4974348;28;20216;-66
2022/02/09 02:59:48;;;;;;;19.77;11.13;;;3.10;63.10;;;;;;4977106;28;20203;-66
2022/02/09 03:13:22;;;;;;;14.53;10.17;;;2.80;64.20;;;;;;4983739;28;20209;-66
2022/02/09 03:15:59;;;;;;;27.63;12.67;;;2.80;64.40;;;;;;4970448;28;20660;-66
2022/02/09 03:23:55;;;;;;;18.43;10.17;;;2.70;64.30;;;;;;4977444;28;20648;-66
2022/02/09 03:51:14;;;;;;;16.03;10.63;;;2.80;64.00;;;;;;4977727;28;20212;-67
2022/02/09 03:58:42;;;;;;;25.13;11.37;;;2.80;64.80;;;;;;4971885;28;20209;-66
2022/02/09 04:01:09;;;;;;;18.97;11.53;;;2.80;65.00;;;;;;4973578;28;20287;-66
2022/02/09 04:03:36;;;;;;;17.43;10.53;;;2.80;65.00;;;;;;4972287;28;20209;-66
2022/02/09 04:06:04;;;;;;;18.57;10.37;;;2.80;64.90;;;;;;4972218;28;20677;-66
2022/02/09 04:08:35;;;;;;;20.30;11.53;;;2.80;64.80;;;;;;4979356;28;20266;-66
2022/02/09 04:11:11;;;;;;;23.77;10.87;;;2.80;64.80;;;;;;4980510;28;20216;-66
2022/02/09 04:16:20;;;;;;;21.80;10.97;;;2.80;65.10;;;;;;4981228;28;20227;-66
2022/02/09 04:19:05;;;;;;;15.90;9.97;;;2.70;65.60;;;;;;4977902;28;20220;-66
2022/02/09 04:43:38;;;;;;;17.53;10.57;;;2.50;66.40;;;;;;4980115;28;20225;-66
2022/02/09 04:56:45;;;;;;;25.93;11.40;;;2.40;67.10;;;;;;4985343;28;20672;-66
2022/02/09 05:25:51;;;;;;;19.13;10.83;;;2.50;66.60;;;;;;4985290;28;20224;-66
2022/02/09 05:28:21;;;;;;;21.37;11.23;;;2.40;66.10;;;;;;4985059;28;20248;-66
2022/02/09 05:30:52;;;;;;;18.33;11.20;;;2.40;66.80;;;;;;4982645;28;20209;-66
2022/02/09 05:33:20;;;;;;;17.43;10.47;;;2.30;66.30;;;;;;4962920;28;20241;-66
2022/02/09 05:35:48;;;;;;;25.20;10.73;;;2.30;66.50;;;;;;4986988;28;20216;-66
2022/02/09 05:38:18;;;;;;;18.30;10.30;;;2.30;66.60;;;;;;4983834;28;20630;-66
2022/02/09 05:40:46;;;;;;;26.00;11.33;;;2.20;66.80;;;;;;4985557;28;20201;-66
2022/02/09 05:43:15;;;;;;;17.70;10.77;;;2.20;66.90;;;;;;4995425;28;20250;-66
2022/02/09 05:46:06;;;;;;;22.10;11.27;;;2.30;67.00;;;;;;4977554;28;20211;-66
2022/02/09 05:51:27;;;;;;;21.60;11.47;;;2.20;67.30;;;;;;4978975;28;20307;-66
2022/02/09 05:54:07;;;;;;;18.83;11.23;;;2.20;67.40;;;;;;4984392;28;20201;-66
2022/02/09 05:56:46;;;;;;;22.07;10.47;;;2.20;67.60;;;;;;4977107;28;20215;-66
2022/02/09 05:59:27;;;;;;;18.87;10.20;;;2.20;67.60;;;;;;4977939;28;20752;-66
2022/02/09 06:01:57;;;;;;;16.50;10.50;;;2.20;67.70;;;;;;4979326;28;20213;-66
2022/02/09 06:04:24;;;;;;;21.03;11.07;;;2.30;67.70;;;;;;4983473;28;20207;-66
2022/02/09 06:06:51;;;;;;;26.10;12.03;;;2.30;67.90;;;;;;4982656;28;20214;-66
2022/02/09 06:09:18;;;;;;;25.17;10.37;;;2.20;67.90;;;;;;4982764;28;20247;-66
2022/02/09 06:11:52;;;;;;;21.67;10.90;;;2.20;67.70;;;;;;5002195;28;20241;-66
2022/02/09 06:20:13;;;;;;;18.53;10.80;;;2.00;67.80;;;;;;4998203;28;20216;-66
2022/02/09 06:22:40;;;;;;;28.57;11.70;;;2.00;67.70;;;;;;4967689;28;20213;-66
2022/02/09 06:25:07;;;;;;;22.87;11.73;;;1.90;67.90;;;;;;4982303;28;20534;-66
2022/02/09 06:27:34;;;;;;;15.67;10.00;;;1.90;68.30;;;;;;4978720;28;20245;-66
2022/02/09 06:30:02;;;;;;;30.57;11.90;;;1.80;68.70;;;;;;4977898;28;20212;-66
2022/02/09 06:32:29;;;;;;;27.33;11.83;;;1.80;68.50;;;;;;4991526;28;20217;-66
2022/02/09 06:34:57;;;;;;;20.07;11.27;;;1.80;68.60;;;;;;4977456;28;20268;-66
2022/02/09 06:40:05;;;;;;;18.40;11.27;;;1.70;69.00;;;;;;4982164;28;20219;-66
2022/02/09 06:42:35;;;;;;;21.10;11.60;;;1.70;69.10;;;;;;4982952;28;20215;-66
2022/02/09 06:45:38;;;;;;;20.50;11.43;;;1.70;69.40;;;;;;4985353;28;20653;-66
2022/02/09 06:47:57;;;;;;;20.93;10.33;;;1.70;69.50;;;;;;4981265;28;20225;-66
2022/02/09 06:50:38;;;;;;;19.30;12.40;;;1.70;69.90;;;;;;4982277;28;20206;-66
2022/02/09 06:54:10;;;;;;;21.47;12.00;;;1.70;69.90;;;;;;4996895;28;20222;-66
2022/02/09 06:56:03;;;;;;;19.30;11.07;;;1.80;70.00;;;;;;4976096;28;20560;-66
2022/02/09 07:01:05;;;;;;;17.93;10.37;;;2.10;69.40;;;;;;4980045;28;20219;-66
2022/02/09 07:03:33;;;;;;;22.63;10.03;;;2.30;68.60;;;;;;4980247;28;20635;-66
2022/02/09 07:06:03;;;;;;;19.73;10.03;;;2.60;67.90;;;;;;4981934;28;20230;-66
2022/02/09 07:08:30;;;;;;;16.93;11.23;;;3.00;66.90;;;;;;4994958;28;20215;-66
2022/02/09 07:10:57;;;;;;;16.57;11.40;;;3.40;65.80;;;;;;4980427;28;20208;-66
2022/02/09 07:13:24;;;;;;;20.47;11.30;;;3.80;64.00;;;;;;4982356;28;20685;-66
2022/02/09 07:15:54;;;;;;;20.33;11.23;;;4.20;62.80;;;;;;4995631;28;20200;-66
2022/02/09 07:18:23;;;;;;;17.43;11.50;;;4.60;62.20;;;;;;4979551;28;20209;-66
2022/02/09 07:26:14;;;;;;;19.20;10.77;;;5.70;58.70;;;;;;4978085;28;20216;-66
2022/02/09 07:28:38;;;;;;;21.67;12.17;;;6.10;58.00;;;;;;4981089;28;20224;-66
2022/02/09 07:31:07;;;;;;;28.40;11.50;;;6.40;57.00;;;;;;4974229;28;20215;-66
2022/02/09 07:33:35;;;;;;;23.63;10.07;;;6.70;56.40;;;;;;4970889;28;20226;-66
2022/02/09 07:36:03;;;;;;;19.90;10.53;;;6.90;55.50;;;;;;4981461;28;20201;-66
2022/02/09 07:38:30;;;;;;;21.53;9.40;;;7.00;55.40;;;;;;4986029;28;20661;-65
2022/02/09 07:40:59;;;;;;;24.90;10.23;;;7.20;55.30;;;;;;4983778;28;20285;-66
2022/02/09 07:48:52;;;;;;;16.73;9.20;;;7.40;54.80;;;;;;4983253;28;20269;-66
2022/02/09 07:53:59;;;;;;;23.77;10.67;;;7.20;54.50;;;;;;4968897;28;20218;-66
2022/02/09 07:56:32;;;;;;;16.33;10.03;;;7.10;55.10;;;;;;4971202;28;20202;-66
2022/02/09 07:59:00;;;;;;;14.23;9.10;;;7.10;55.80;;;;;;4971189;28;20202;-66
2022/02/09 08:01:27;;;;;;;20.87;9.63;;;7.00;55.70;;;;;;4982485;28;20212;-66
2022/02/09 08:03:54;;;;;;;17.43;9.17;;;7.00;56.00;;;;;;4980163;28;20528;-66
2022/02/09 08:06:24;;;;;;;20.83;9.87;;;6.90;55.30;;;;;;4957137;28;20349;-66
2022/02/09 08:08:55;;;;;;;15.93;10.10;;;6.80;56.10;;;;;;4983856;28;20659;-66
2022/02/09 08:11:43;;;;;;;14.83;9.77;;;6.60;56.80;;;;;;4981561;28;20217;-66
2022/02/09 08:33:17;;;;;;;18.67;10.77;;;7.10;58.90;;;;;;4984942;28;20282;-67
2022/02/09 08:35:49;;;;;;;20.27;12.83;;;7.30;58.60;;;;;;4984237;28;20422;-67
2022/02/09 08:38:17;;;;;;;18.63;11.93;;;7.40;57.60;;;;;;4982095;28;20208;-67
2022/02/09 08:40:46;;;;;;;16.30;10.80;;;7.50;57.50;;;;;;4992671;28;20641;-66
2022/02/09 08:43:14;;;;;;;16.73;11.23;;;7.70;57.30;;;;;;4976319;28;20331;-66
2022/02/09 08:45:42;;;;;;;17.10;10.57;;;7.90;56.90;;;;;;4989461;28;20643;-67
2022/02/09 08:48:10;;;;;;;14.03;10.30;;;8.00;55.60;;;;;;4984663;28;20221;-68
2022/02/09 08:50:38;;;;;;;15.47;8.73;;;8.00;55.10;;;;;;4997837;28;20509;-68
2022/02/09 08:53:05;;;;;;;10.67;8.07;;;8.10;55.50;;;;;;4986143;28;20223;-68
2022/02/09 08:55:34;;;;;;;14.97;9.37;;;8.20;55.90;;;;;;4994134;28;20277;-67
2022/02/09 08:58:03;;;;;;;11.93;8.67;;;8.30;56.10;;;;;;4987612;28;20275;-68
2022/02/09 09:00:34;;;;;;;12.77;9.17;;;8.40;54.80;;;;;;4983991;28;20548;-67
2022/02/09 09:03:16;;;;;;;13.60;8.20;;;8.40;54.70;;;;;;4985105;28;20204;-68
2022/02/09 09:08:35;;;;;;;18.63;8.13;;;8.60;55.30;;;;;;4987027;28;20211;-67
2022/02/09 10:34:10;;;;;;;9.63;7.63;;;12.00;48.60;;;;;;5001716;28;20209;-69
2022/02/09 10:37:02;;;;;;;11.80;7.67;;;12.10;49.10;;;;;;5002764;28;20235;-67
2022/02/09 10:42:29;;;;;;;16.37;9.33;;;12.20;48.40;;;;;;5003787;28;20206;-67
2022/02/09 10:45:04;;;;;;;14.67;8.33;;;12.40;48.80;;;;;;5003582;28;20229;-67
2022/02/09 10:47:37;;;;;;;12.57;9.10;;;12.50;48.90;;;;;;4999795;28;20220;-68
2022/02/09 10:50:37;;;;;;;10.90;8.27;;;12.60;49.10;;;;;;4998581;28;20221;-67
2022/02/09 10:53:11;;;;;;;11.30;7.77;;;12.60;48.70;;;;;;5002222;28;20216;-67
2022/02/09 10:55:42;;;;;;;13.80;8.30;;;12.80;49.00;;;;;;5001024;28;20202;-68
2022/02/09 10:58:16;;;;;;;14.30;9.20;;;12.90;48.80;;;;;;5001041;28;20337;-68
2022/02/09 11:00:46;;;;;;;11.00;8.70;;;13.10;48.50;;;;;;5012023;28;20219;-68
2022/02/09 11:03:25;;;;;;;12.73;8.20;;;13.20;48.50;;;;;;5000334;28;20241;-70
2022/02/09 11:05:56;;;;;;;9.27;8.03;;;13.30;48.30;;;;;;5005918;28;20252;-66
2022/02/09 11:08:24;;;;;;;14.77;8.17;;;13.40;48.20;;;;;;5008716;28;20299;-68
2022/02/09 11:10:54;;;;;;;13.40;8.20;;;13.60;48.30;;;;;;5011328;28;20217;-68
2022/02/09 11:13:21;;;;;;;11.67;8.37;;;13.70;48.40;;;;;;5008211;28;20282;-68
2022/02/09 11:15:49;;;;;;;14.53;8.17;;;13.80;48.30;;;;;;4995879;28;20287;-68
2022/02/09 11:18:21;;;;;;;13.43;8.30;;;14.00;48.00;;;;;;5003037;28;20585;-67
2022/02/09 11:21:05;;;;;;;11.23;8.10;;;14.20;47.80;;;;;;5003296;28;20219;-67
2022/02/09 11:23:54;;;;;;;13.50;9.07;;;14.30;47.90;;;;;;5001346;28;20228;-67
2022/02/09 11:26:40;;;;;;;19.47;9.20;;;14.40;48.10;;;;;;5020715;28;20271;-67
2022/02/09 11:29:18;;;;;;;10.20;8.23;;;14.50;48.50;;;;;;5009205;28;20314;-67
2022/02/09 11:32:31;;;;;;;16.77;8.77;;;14.70;48.20;;;;;;4999498;28;20568;-67
2022/02/09 11:35:04;;;;;;;13.33;8.73;;;14.70;48.00;;;;;;4996675;28;20645;-67
2022/02/09 11:41:06;;;;;;;16.57;8.10;;;14.80;48.40;;;;;;5010670;28;20219;-67
2022/02/09 11:46:51;;;;;;;15.17;8.77;;;15.00;49.00;;;;;;5001554;28;20558;-67
2022/02/09 12:12:12;;;;;;;12.73;7.13;;;15.80;48.80;;;;;;5006690;28;20261;-68
2022/02/09 12:15:00;;;;;;;12.10;6.10;;;15.80;49.00;;;;;;5002145;28;20231;-68
2022/02/09 12:20:07;;;;;;;9.57;6.20;;;15.80;50.30;;;;;;5005120;28;20202;-68
2022/02/09 12:25:46;;;;;;;10.70;5.83;;;15.80;49.50;;;;;;4994921;28;20656;-68
2022/02/09 12:28:26;;;;;;;12.20;6.67;;;15.80;50.40;;;;;;5009333;28;20206;-68
2022/02/09 12:31:23;;;;;;;9.13;5.63;;;15.80;51.10;;;;;;5002746;28;20720;-68
2022/02/09 12:33:51;;;;;;;11.37;5.90;;;15.80;50.90;;;;;;5024082;28;20247;-68
2022/02/09 12:36:21;;;;;;;12.47;6.17;;;15.80;51.30;;;;;;5005984;28;20235;-68
2022/02/09 12:38:57;;;;;;;9.87;5.87;;;15.80;51.20;;;;;;5013998;28;20518;-68
2022/02/09 12:41:25;;;;;;;10.27;5.90;;;15.80;51.20;;;;;;4999154;28;20270;-67
2022/02/09 12:44:01;;;;;;;11.17;5.63;;;15.80;50.90;;;;;;5000846;28;20213;-68
2022/02/09 12:46:33;;;;;;;11.73;5.47;;;15.80;51.70;;;;;;5006795;28;20219;-68
2022/02/09 12:49:13;;;;;;;11.37;5.43;;;15.80;51.70;;;;;;5007752;28;20644;-68
2022/02/09 12:51:44;;;;;;;7.63;5.37;;;15.90;51.80;;;;;;4988541;28;20216;-68
2022/02/09 12:54:13;;;;;;;8.47;5.50;;;16.00;51.80;;;;;;5005810;28;20621;-68
2022/02/09 12:56:45;;;;;;;12.97;5.70;;;16.10;51.80;;;;;;5004398;28;20277;-68
2022/02/09 12:59:14;;;;;;;9.37;5.30;;;16.20;51.20;;;;;;5007300;28;20201;-68
2022/02/09 13:01:54;;;;;;;10.73;5.87;;;16.30;50.70;;;;;;4990277;28;20209;-68
2022/02/09 13:04:34;;;;;;;10.13;5.60;;;16.30;51.00;;;;;;5004317;28;20307;-68
2022/02/09 13:07:04;;;;;;;19.10;6.53;;;16.40;50.70;;;;;;4999824;28;20219;-68
2022/02/09 13:09:33;;;;;;;8.50;5.57;;;16.40;50.60;;;;;;4994331;28;20735;-68
2022/02/09 13:12:00;;;;;;;17.67;6.23;;;16.30;50.60;;;;;;5002531;28;20235;-68
2022/02/09 13:14:35;;;;;;;12.00;5.57;;;16.30;50.50;;;;;;5003048;28;20616;-68
2022/02/09 14:10:16;;;;;;;12.97;5.83;;;16.10;52.00;;;;;;5005560;28;20291;-68
2022/02/09 14:10:50;;;;;;;8.17;4.83;;;16.10;52.00;;;;;;5011407;28;20286;-67
2022/02/09 14:56:18;;;;;;;11.30;5.17;;;15.70;53.00;;;;;;5007474;28;20265;-68
2022/02/09 14:58:52;;;;;;;14.33;5.20;;;15.60;53.00;;;;;;5010296;28;20284;-68
2022/02/09 15:01:33;;;;;;;13.17;5.87;;;15.60;53.10;;;;;;5007863;28;20647;-68
2022/02/09 15:04:18;;;;;;;14.03;5.77;;;15.60;53.20;;;;;;5008674;28;20211;-68
2022/02/09 15:10:05;;;;;;;15.27;6.67;;;15.50;52.70;;;;;;4983440;28;20675;-68
2022/02/09 15:15:31;;;;;;;9.73;5.10;;;15.40;53.20;;;;;;5002489;28;20288;-67
2022/02/09 15:23:17;;;;;;;11.47;5.27;;;15.30;53.30;;;;;;4997656;28;20308;-67
2022/02/09 15:25:44;;;;;;;12.63;5.77;;;15.30;53.60;;;;;;5008034;28;20211;-68
2022/02/09 15:28:12;;;;;;;17.77;6.20;;;15.20;53.30;;;;;;5006357;28;20225;-68
2022/02/09 15:30:53;;;;;;;11.97;6.23;;;15.20;53.40;;;;;;5007107;28;20361;-68
2022/02/09 15:33:25;;;;;;;10.30;5.50;;;15.20;53.50;;;;;;5011401;28;20535;-68
2022/02/09 15:36:15;;;;;;;12.63;6.20;;;15.10;53.70;;;;;;5004647;28;20243;-69
2022/02/09 15:38:45;;;;;;;13.00;4.77;;;15.10;54.00;;;;;;5004677;28;20209;-67
2022/02/09 15:57:52;;;;;;;12.93;6.53;;;14.70;55.20;;;;;;5007527;28;20658;-67
2022/02/09 16:05:56;;;;;;;15.27;6.23;;;14.50;55.20;;;;;;5006481;28;20292;-67
2022/02/09 16:11:36;;;;;;;14.80;6.93;;;14.40;56.00;;;;;;5011636;28;20306;-67
2022/02/09 16:38:14;;;;;;;25.40;8.43;;;13.40;57.80;;;;;;5004233;28;20225;-67
2022/02/09 16:46:19;;;;;;;14.20;7.97;;;13.00;58.50;;;;;;5002193;28;20244;-68
2022/02/09 16:51:34;;;;;;;23.97;9.40;;;12.70;59.40;;;;;;5004895;28;20709;-66
2022/02/09 16:54:09;;;;;;;22.30;9.60;;;12.60;59.70;;;;;;5014926;28;20516;-67
2022/02/09 17:21:20;;;;;;;27.10;9.83;;;11.60;61.80;;;;;;5009097;28;20201;-68
2022/02/09 17:23:50;;;;;;;23.50;10.53;;;11.50;61.90;;;;;;5007109;28;20203;-68
2022/02/09 17:26:18;;;;;;;21.40;9.00;;;11.40;62.10;;;;;;5009038;28;20221;-67
2022/02/09 17:28:55;;;;;;;20.37;8.67;;;11.30;62.20;;;;;;4997388;28;20277;-67
2022/02/09 17:31:30;;;;;;;23.17;10.80;;;11.20;62.40;;;;;;5013522;28;20204;-67
2022/02/09 17:56:18;;;;;;;22.57;11.37;;;10.60;65.60;;;;;;5006111;28;20227;-67
2022/02/09 17:58:49;;;;;;;21.40;10.97;;;10.50;65.70;;;;;;5014274;28;20235;-68
2022/02/09 18:01:20;;;;;;;25.83;11.57;;;10.40;65.80;;;;;;5004970;28;20204;-68
2022/02/09 18:03:52;;;;;;;27.90;12.50;;;10.40;66.10;;;;;;5013354;28;20648;-68
2022/02/09 18:06:29;;;;;;;23.13;13.00;;;10.30;66.30;;;;;;5001438;28;20208;-67
2022/02/09 18:09:13;;;;;;;25.20;12.47;;;10.20;66.80;;;;;;5005367;28;20715;-67
2022/02/09 18:30:22;;;;;;;23.07;14.83;;;9.80;67.70;;;;;;5003420;28;20223;-68
2022/02/09 18:33:09;;;;;;;21.03;13.83;;;9.80;68.40;;;;;;5004195;28;20273;-68
2022/02/09 18:38:55;;;;;;;28.83;14.23;;;9.70;69.10;;;;;;5007846;28;20244;-67
2022/02/09 19:03:33;;;;;;;25.40;13.43;;;9.20;69.50;;;;;;5008393;28;20208;-67
2022/02/09 19:06:11;;;;;;;29.07;14.30;;;9.20;69.80;;;;;;5008907;28;20286;-68
2022/02/09 19:16:48;;;;;;;24.20;14.97;;;8.90;70.10;;;;;;4999825;28;20234;-67
2022/02/09 19:19:31;;;;;;;28.20;13.03;;;8.90;70.60;;;;;;5008998;28;20208;-67
2022/02/09 19:30:26;;;;;;;22.73;12.00;;;8.70;71.00;;;;;;5004258;28;20241;-67
2022/02/09 19:48:45;;;;;;;34.73;17.03;;;8.50;72.80;;;;;;5013978;28;20219;-67
2022/02/09 19:56:29;;;;;;;37.10;22.60;;;8.40;73.20;;;;;;5013207;28;20241;-67
2022/02/09 19:59:02;;;;;;;27.47;18.53;;;8.30;73.70;;;;;;5006196;28;20215;-67
2022/02/09 20:01:39;;;;;;;31.43;18.70;;;8.30;73.70;;;;;;5003778;28;20208;-67
2022/02/09 20:04:07;;;;;;;30.57;17.73;;;8.20;72.70;;;;;;5005323;28;20206;-67
2022/02/09 20:06:36;;;;;;;30.30;17.20;;;8.10;72.50;;;;;;5005045;28;20239;-67
2022/02/09 20:09:04;;;;;;;29.53;19.37;;;8.00;72.50;;;;;;5021662;28;20308;-67
2022/02/09 20:11:32;;;;;;;27.90;18.03;;;8.00;73.10;;;;;;5004485;28;20233;-67
2022/02/09 20:14:00;;;;;;;29.20;18.37;;;7.90;73.60;;;;;;5009724;28;20722;-67
2022/02/09 20:16:27;;;;;;;28.07;17.83;;;7.90;74.10;;;;;;5002193;28;20305;-67
2022/02/09 20:18:55;;;;;;;32.57;17.47;;;7.90;74.60;;;;;;4997417;28;20212;-67
2022/02/09 20:21:28;;;;;;;30.47;18.60;;;7.90;74.90;;;;;;5012855;28;20301;-67
2022/02/09 20:23:56;;;;;;;32.23;18.90;;;7.90;75.20;;;;;;5001162;28;20291;-67
2022/02/09 20:26:25;;;;;;;30.93;18.77;;;7.90;75.50;;;;;;5011035;28;20205;-67
2022/02/09 20:29:06;;;;;;;33.27;19.33;;;7.90;75.70;;;;;;5014569;28;20239;-67
2022/02/09 20:31:43;;;;;;;30.07;19.13;;;7.90;75.80;;;;;;5012415;28;20242;-67
2022/02/09 20:34:21;;;;;;;30.80;19.57;;;8.00;76.00;;;;;;5016831;28;20207;-67
2022/02/09 20:36:49;;;;;;;34.47;17.90;;;8.00;75.80;;;;;;5006067;28;20679;-67
2022/02/09 20:39:22;;;;;;;33.33;19.83;;;7.90;75.70;;;;;;5014629;28;20222;-67
2022/02/09 20:41:50;;;;;;;32.70;20.47;;;8.00;75.90;;;;;;5015586;28;20564;-67
2022/02/09 20:46:53;;;;;;;30.70;18.57;;;7.90;76.00;;;;;;5004023;28;20664;-67
2022/02/09 20:49:21;;;;;;;31.77;18.90;;;7.90;75.70;;;;;;5017297;28;20211;-67
2022/02/09 20:51:48;;;;;;;31.97;18.93;;;7.90;75.40;;;;;;4994358;28;20242;-67
2022/02/09 20:54:15;;;;;;;37.17;20.83;;;7.90;75.20;;;;;;5007688;28;20224;-67
2022/02/09 20:56:43;;;;;;;31.67;20.97;;;7.80;75.20;;;;;;5006467;28;20228;-66
2022/02/09 20:59:14;;;;;;;39.20;22.93;;;7.80;75.20;;;;;;5006750;28;20264;-67
2022/02/09 21:01:58;;;;;;;39.77;21.83;;;7.80;75.30;;;;;;5010924;28;20213;-67
2022/02/09 21:04:28;;;;;;;37.27;20.73;;;7.70;75.60;;;;;;5010801;28;20354;-67
2022/02/09 21:07:11;;;;;;;35.30;20.60;;;7.70;75.70;;;;;;5007645;28;20222;-67
2022/02/09 21:10:28;;;;;;;42.40;23.63;;;7.70;75.60;;;;;;5008187;28;20265;-67
2022/02/09 21:12:58;;;;;;;44.20;23.53;;;7.60;75.60;;;;;;5007155;28;20635;-67
2022/02/09 21:55:26;;;;;;;35.60;21.00;;;7.60;77.20;;;;;;5015008;28;20207;-67
2022/02/09 21:57:59;;;;;;;37.43;20.83;;;7.50;77.30;;;;;;5013628;28;20666;-68
2022/02/09 22:22:28;;;;;;;38.47;20.83;;;7.30;77.30;;;;;;5006264;28;20203;-67
2022/02/09 22:27:28;;;;;;;32.37;20.13;;;7.20;77.70;;;;;;5007312;28;20222;-67
2022/02/09 22:54:33;;;;;;;37.53;21.90;;;7.20;77.30;;;;;;5014421;28;20222;-67
2022/02/09 22:57:01;;;;;;;30.17;19.53;;;7.20;77.00;;;;;;5005320;28;20241;-66
2022/02/09 22:59:34;;;;;;;28.70;20.67;;;7.10;76.70;;;;;;5005847;28;20232;-67
2022/02/09 23:02:07;;;;;;;32.93;20.07;;;7.10;76.30;;;;;;5009537;28;20302;-67
2022/02/09 23:04:54;;;;;;;30.83;20.23;;;7.00;76.30;;;;;;5000448;28;20207;-68
2022/02/09 23:07:34;;;;;;;33.37;19.20;;;7.00;76.50;;;;;;5009870;28;20204;-68
2022/02/09 23:10:11;;;;;;;31.87;21.00;;;6.90;76.60;;;;;;5014516;28;20242;-68
2022/02/09 23:12:55;;;;;;;30.80;19.37;;;6.90;76.70;;;;;;5005717;28;20225;-68
2022/02/09 23:15:41;;;;;;;33.13;19.97;;;6.90;76.80;;;;;;4989722;28;20213;-68
2022/02/09 23:18:42;;;;;;;29.33;18.00;;;6.80;76.80;;;;;;5008854;28;20249;-68
